createdAt,value
2023-10-18T00:02:16.265Z,6.89
2023-10-18T00:05:05.448Z,6.87
2023-10-18T00:08:03.397Z,6.87
2023-10-18T00:11:24.521Z,6.85
2023-10-18T00:14:31.568Z,6.85
2023-10-18T00:17:41.533Z,6.83
2023-10-18T00:21:09.329Z,6.80
2023-10-18T00:24:37.050Z,6.79
2023-10-18T00:27:52.882Z,6.76
2023-10-18T00:31:00.061Z,6.74
2023-10-18T00:34:21.201Z,6.70
2023-10-18T00:37:44.942Z,6.68
2023-10-18T00:40:49.818Z,6.66
2023-10-18T00:43:43.076Z,6.63
2023-10-18T00:47:06.801Z,6.63
2023-10-18T00:50:30.544Z,6.64
2023-10-18T00:53:58.510Z,6.65
2023-10-18T00:57:03.612Z,6.68
2023-10-18T01:00:31.438Z,6.73
2023-10-18T01:03:59.284Z,6.77
2023-10-18T01:07:27.048Z,6.84
2023-10-18T01:10:39.666Z,6.92
2023-10-18T01:13:28.646Z,6.98
2023-10-18T01:16:28.141Z,7.04
2023-10-18T01:19:24.999Z,7.08
2023-10-18T01:22:53.033Z,7.10
2023-10-18T01:26:20.921Z,7.11
2023-10-18T01:29:29.091Z,7.13
2023-10-18T01:32:56.915Z,7.19
2023-10-18T01:36:05.545Z,7.23
2023-10-18T01:39:20.946Z,7.25
2023-10-18T01:42:48.598Z,7.30
2023-10-18T01:46:16.490Z,7.29
2023-10-18T01:49:44.299Z,7.26
2023-10-18T01:52:33.472Z,7.20
2023-10-18T01:55:42.364Z,7.17
2023-10-18T01:59:10.004Z,7.14
2023-10-18T02:02:03.058Z,7.10
2023-10-18T02:05:14.629Z,7.05
2023-10-18T02:07:43.422Z,7.00
2023-10-18T02:11:11.201Z,6.93
2023-10-18T02:14:02.299Z,6.86
2023-10-18T02:17:30.340Z,6.79
2023-10-18T02:19:59.835Z,6.75
2023-10-18T02:23:15.622Z,6.70
2023-10-18T02:26:07.758Z,6.64
2023-10-18T02:29:23.481Z,6.60
2023-10-18T02:32:35.186Z,6.55
2023-10-18T02:36:02.797Z,6.52
2023-10-18T02:39:30.902Z,6.46
2023-10-18T02:42:39.747Z,6.40
2023-10-18T02:45:25.830Z,6.35
2023-10-18T02:48:41.207Z,6.28
2023-10-18T02:52:08.835Z,6.22
2023-10-18T02:55:36.633Z,6.16
2023-10-18T02:59:04.461Z,6.12
2023-10-18T03:02:14.216Z,6.08
2023-10-18T03:05:42.298Z,6.02
2023-10-18T03:09:10.102Z,5.99
2023-10-18T03:12:37.713Z,5.94
2023-10-18T03:16:05.525Z,5.92
2023-10-18T03:19:33.401Z,5.91
2023-10-18T03:23:01.197Z,5.90
2023-10-18T03:26:28.809Z,5.90
2023-10-18T03:29:56.970Z,5.89
2023-10-18T03:33:24.625Z,5.88
2023-10-18T03:36:52.574Z,5.87
2023-10-18T03:40:16.199Z,5.85
2023-10-18T03:43:43.780Z,5.80
2023-10-18T03:47:11.387Z,5.74
2023-10-18T03:50:39.220Z,5.70
2023-10-18T03:53:48.804Z,5.67
2023-10-18T03:57:05.277Z,5.66
2023-10-18T04:00:33.488Z,5.66
2023-10-18T04:03:49.068Z,5.65
2023-10-18T04:06:39.734Z,5.65
2023-10-18T04:09:48.527Z,5.64
2023-10-18T04:12:58.372Z,5.62
2023-10-18T04:16:26.127Z,5.60
2023-10-18T04:19:42.497Z,5.58
2023-10-18T04:22:43.442Z,5.58
2023-10-18T04:25:59.239Z,5.57
2023-10-18T04:29:23.052Z,5.53
2023-10-18T04:32:08.118Z,5.50
2023-10-18T04:34:45.456Z,5.46
2023-10-18T04:37:44.849Z,5.43
2023-10-18T04:40:41.043Z,5.38
2023-10-18T04:43:30.618Z,5.32
2023-10-18T04:46:35.019Z,5.27
2023-10-18T04:49:24.300Z,5.20
2023-10-18T04:52:26.141Z,5.17
2023-10-18T04:55:26.944Z,5.12
2023-10-18T04:58:39.915Z,5.06
2023-10-18T05:01:32.134Z,5.01
2023-10-18T05:04:42.147Z,4.97
2023-10-18T05:07:34.215Z,4.94
2023-10-18T05:10:40.255Z,4.92
2023-10-18T05:14:08.035Z,4.93
2023-10-18T05:16:57.141Z,4.94
2023-10-18T05:20:24.833Z,4.94
2023-10-18T05:23:17.777Z,4.96
2023-10-18T05:26:13.949Z,5.01
2023-10-18T05:29:18.233Z,5.05
2023-10-18T05:32:50.601Z,5.12
2023-10-18T05:36:11.135Z,5.21
2023-10-18T05:39:26.937Z,5.29
2023-10-18T05:42:54.723Z,5.38
2023-10-18T05:46:22.391Z,5.48
2023-10-18T05:49:50.265Z,5.50
2023-10-18T05:53:03.170Z,5.56
2023-10-18T05:56:12.294Z,5.60
2023-10-18T05:59:35.964Z,5.73
2023-10-18T06:02:34.581Z,5.82
2023-10-18T06:05:43.720Z,5.86
2023-10-18T06:09:12.624Z,5.92
2023-10-18T06:12:11.641Z,5.98
2023-10-18T06:15:21.517Z,6.04
2023-10-18T06:18:15.028Z,6.13
2023-10-18T06:21:06.056Z,6.26
2023-10-18T06:24:30.739Z,6.38
2023-10-18T06:27:39.502Z,6.51
2023-10-18T06:30:48.721Z,6.63
2023-10-18T06:33:57.607Z,6.72
2023-10-18T06:36:47.396Z,6.79
2023-10-18T06:40:15.677Z,6.92
2023-10-18T06:43:27.544Z,7.07
2023-10-18T06:46:37.440Z,7.21
2023-10-18T06:49:47.148Z,7.28
2023-10-18T06:53:10.761Z,7.33
2023-10-18T06:56:14.285Z,7.38
2023-10-18T06:59:37.300Z,7.53
2023-10-18T07:02:46.190Z,7.65
2023-10-18T07:05:27.204Z,7.74
2023-10-18T07:08:46.789Z,7.81
2023-10-18T07:12:14.660Z,7.85
2023-10-18T07:15:24.761Z,7.89
2023-10-18T07:18:33.548Z,7.94
2023-10-18T07:21:22.142Z,7.99
2023-10-18T07:24:11.987Z,8.02
2023-10-18T07:27:23.181Z,8.03
2023-10-18T07:30:42.571Z,8.09
2023-10-18T07:34:07.491Z,8.19
2023-10-18T07:37:35.620Z,8.31
2023-10-18T07:40:44.552Z,8.44
2023-10-18T07:44:12.353Z,8.54
2023-10-18T07:47:21.687Z,8.63
2023-10-18T07:50:49.484Z,8.73
2023-10-18T07:54:17.469Z,8.81
2023-10-18T07:57:26.213Z,9.00
2023-10-18T08:00:54.144Z,9.20
2023-10-18T08:03:43.424Z,9.36
2023-10-18T08:07:11.237Z,9.60
2023-10-18T08:10:39.134Z,9.81
2023-10-18T08:14:02.320Z,9.96
2023-10-18T08:17:30.262Z,10.15
2023-10-18T08:20:58.097Z,10.36
2023-10-18T08:24:26.094Z,10.57
2023-10-18T08:27:16.120Z,10.79
2023-10-18T08:30:05.748Z,11.03
2023-10-18T08:33:29.044Z,11.28
2023-10-18T08:36:56.854Z,11.34
2023-10-18T08:40:25.034Z,11.46
2023-10-18T08:43:52.767Z,11.68
2023-10-18T08:46:21.660Z,11.86
2023-10-18T08:49:07.743Z,12.07
2023-10-18T08:52:35.651Z,12.28
2023-10-18T08:56:03.571Z,12.50
2023-10-18T08:58:53.249Z,12.75
2023-10-18T09:02:01.787Z,12.96
2023-10-18T09:05:29.424Z,13.09
2023-10-18T09:08:38.327Z,13.28
2023-10-18T09:12:02.255Z,13.48
2023-10-18T09:15:29.876Z,13.66
2023-10-18T09:18:58.111Z,13.88
2023-10-18T09:22:25.852Z,14.13
2023-10-18T09:25:53.467Z,14.38
2023-10-18T09:29:21.161Z,14.51
2023-10-18T09:32:49.120Z,14.63
2023-10-18T09:36:16.738Z,14.81
2023-10-18T09:39:44.456Z,15.08
2023-10-18T09:42:54.118Z,15.22
2023-10-18T09:46:21.991Z,15.21
2023-10-18T09:49:49.545Z,15.44
2023-10-18T09:53:17.438Z,15.65
2023-10-18T09:56:32.882Z,15.71
2023-10-18T09:59:41.771Z,15.80
2023-10-18T10:03:09.595Z,15.86
2023-10-18T10:05:58.967Z,15.93
2023-10-18T10:09:26.590Z,16.01
2023-10-18T10:12:54.313Z,16.06
2023-10-18T10:16:02.780Z,16.13
2023-10-18T10:19:30.639Z,16.33
2023-10-18T10:22:58.299Z,16.44
2023-10-18T10:26:32.741Z,16.65
2023-10-18T10:29:53.706Z,16.81
2023-10-18T10:32:45.857Z,16.91
2023-10-18T10:36:13.784Z,17.06
2023-10-18T10:39:41.445Z,17.25
2023-10-18T10:43:09.608Z,17.50
2023-10-18T10:46:37.770Z,17.66
2023-10-18T10:49:46.259Z,17.78
2023-10-18T10:52:32.263Z,17.92
2023-10-18T10:55:37.493Z,17.96
2023-10-18T10:58:27.126Z,17.91
2023-10-18T11:01:36.996Z,18.01
2023-10-18T11:04:46.440Z,18.07
2023-10-18T11:07:56.191Z,18.10
2023-10-18T11:11:11.741Z,18.23
2023-10-18T11:14:23.806Z,18.34
2023-10-18T11:17:51.589Z,18.55
2023-10-18T11:20:42.303Z,18.67
2023-10-18T11:24:10.187Z,18.68
2023-10-18T11:27:34.118Z,18.55
2023-10-18T11:30:57.749Z,18.73
2023-10-18T11:34:25.508Z,18.76
2023-10-18T11:37:53.285Z,18.80
2023-10-18T11:41:02.532Z,18.94
2023-10-18T11:43:59.633Z,19.13
2023-10-18T11:46:49.000Z,19.22
2023-10-18T11:49:58.582Z,19.37
2023-10-18T11:53:14.404Z,19.53
2023-10-18T11:56:41.988Z,19.50
2023-10-18T11:59:34.517Z,19.54
2023-10-18T12:02:04.139Z,19.39
2023-10-18T12:05:32.198Z,19.34
2023-10-18T12:08:41.027Z,19.58
2023-10-18T12:12:04.643Z,19.66
2023-10-18T12:15:13.443Z,19.76
2023-10-18T12:18:29.701Z,19.86
2023-10-18T12:21:40.411Z,20.05
2023-10-18T12:25:09.439Z,20.10
2023-10-18T12:28:19.653Z,20.26
2023-10-18T12:31:13.478Z,20.29
2023-10-18T12:34:02.373Z,20.31
2023-10-18T12:36:50.488Z,20.36
2023-10-18T12:39:58.508Z,20.35
2023-10-18T12:43:26.365Z,20.47
2023-10-18T12:46:14.529Z,20.57
2023-10-18T12:49:42.456Z,20.81
2023-10-18T12:52:58.414Z,20.98
2023-10-18T12:56:11.976Z,21.24
2023-10-18T12:59:20.941Z,21.65
2023-10-18T13:02:49.076Z,21.71
2023-10-18T13:05:37.972Z,21.50
2023-10-18T13:09:05.892Z,21.59
2023-10-18T13:11:54.701Z,21.53
2023-10-18T13:15:22.606Z,21.83
2023-10-18T13:18:50.624Z,21.68
2023-10-18T13:22:02.835Z,21.87
2023-10-18T13:25:31.054Z,22.14
2023-10-18T13:28:08.872Z,22.33
2023-10-18T13:31:37.221Z,22.45
2023-10-18T13:34:28.364Z,22.43
2023-10-18T13:37:36.690Z,22.53
2023-10-18T13:41:05.589Z,22.55
2023-10-18T13:44:33.638Z,22.55
2023-10-18T13:48:01.372Z,22.67
2023-10-18T13:51:10.290Z,22.44
2023-10-18T13:54:38.349Z,22.27
2023-10-18T13:58:06.363Z,21.81
2023-10-18T14:01:34.260Z,21.48
2023-10-18T14:04:58.049Z,21.14
2023-10-18T14:08:26.501Z,20.91
2023-10-18T14:11:35.726Z,20.76
2023-10-18T14:14:25.048Z,20.59
2023-10-18T14:17:52.908Z,20.39
2023-10-18T14:21:21.107Z,20.20
2023-10-18T14:24:49.013Z,20.05
2023-10-18T14:28:17.450Z,19.88
2023-10-18T14:31:46.831Z,19.77
2023-10-18T14:35:16.139Z,19.67
2023-10-18T14:38:44.352Z,19.55
2023-10-18T14:41:41.792Z,19.94
2023-10-18T14:44:30.727Z,20.59
2023-10-18T14:47:40.107Z,21.21
2023-10-18T14:51:07.952Z,21.41
2023-10-18T14:54:17.126Z,21.32
2023-10-18T14:57:45.954Z,21.07
2023-10-18T15:00:55.139Z,20.65
2023-10-18T15:04:22.854Z,20.23
2023-10-18T15:07:31.759Z,19.85
2023-10-18T15:10:59.798Z,19.56
2023-10-18T15:14:16.005Z,19.24
2023-10-18T15:17:24.190Z,19.05
2023-10-18T15:20:52.320Z,19.04
2023-10-18T15:24:21.152Z,18.79
2023-10-18T15:27:30.524Z,18.52
2023-10-18T15:30:58.388Z,18.20
2023-10-18T15:34:26.217Z,17.78
2023-10-18T15:37:37.920Z,17.42
2023-10-18T15:41:06.340Z,17.06
2023-10-18T15:44:34.573Z,16.77
2023-10-18T15:47:26.026Z,16.53
2023-10-18T15:50:54.116Z,16.29
2023-10-18T15:54:22.185Z,16.03
2023-10-18T15:57:52.792Z,15.75
2023-10-18T16:01:21.036Z,15.48
2023-10-18T16:04:29.702Z,15.26
2023-10-18T16:07:57.353Z,15.03
2023-10-18T16:11:25.636Z,14.83
2023-10-18T16:14:53.383Z,14.66
2023-10-18T16:18:21.794Z,14.50
2023-10-18T16:21:55.673Z,14.36
2023-10-18T16:25:24.339Z,14.25
2023-10-18T16:28:40.099Z,14.15
2023-10-18T16:31:48.275Z,14.07
2023-10-18T16:35:17.651Z,13.99
2023-10-18T16:38:46.187Z,13.91
2023-10-18T16:42:14.409Z,13.84
2023-10-18T16:45:43.327Z,13.77
2023-10-18T16:48:52.508Z,13.72
2023-10-18T16:52:21.764Z,13.65
2023-10-18T16:55:50.104Z,13.58
2023-10-18T16:59:18.142Z,13.52
2023-10-18T17:02:46.293Z,13.45
2023-10-18T17:06:12.553Z,13.40
2023-10-18T17:09:44.245Z,13.33
2023-10-18T17:12:54.482Z,13.26
2023-10-18T17:16:22.671Z,13.20
2023-10-18T17:19:59.160Z,13.14
2023-10-18T17:23:08.036Z,13.10
2023-10-18T17:26:36.191Z,13.04
2023-10-18T17:30:04.181Z,12.99
2023-10-18T17:33:32.436Z,12.93
2023-10-18T17:37:02.264Z,12.88
2023-10-18T17:40:30.411Z,12.82
2023-10-18T17:43:58.530Z,12.77
2023-10-18T17:47:26.815Z,12.73
2023-10-18T17:50:55.063Z,12.68
2023-10-18T17:54:25.319Z,12.64
2023-10-18T17:57:52.421Z,12.61
2023-10-18T18:01:20.556Z,12.59
2023-10-18T18:04:49.985Z,12.55
2023-10-18T18:08:19.777Z,12.50
2023-10-18T18:11:46.234Z,12.45
2023-10-18T18:15:14.512Z,12.40
2023-10-18T18:18:42.360Z,12.33
2023-10-18T18:22:10.827Z,12.26
2023-10-18T18:25:38.994Z,12.21
2023-10-18T18:29:07.155Z,12.15
2023-10-18T18:32:35.861Z,12.08
2023-10-18T18:36:04.197Z,12.02
2023-10-18T18:39:34.755Z,11.96
2023-10-18T18:43:05.189Z,11.91
2023-10-18T18:46:39.510Z,11.85
2023-10-18T18:50:13.374Z,11.79
2023-10-18T18:53:42.115Z,11.74
2023-10-18T18:57:10.367Z,11.70
2023-10-18T19:00:38.673Z,11.63
2023-10-18T19:04:06.531Z,11.57
2023-10-18T19:07:34.527Z,11.53
2023-10-18T19:11:03.321Z,11.48
2023-10-18T19:14:31.667Z,11.45
2023-10-18T19:18:00.009Z,11.41
2023-10-18T19:21:09.857Z,11.37
2023-10-18T19:24:42.074Z,11.32
2023-10-18T19:28:10.401Z,11.28
2023-10-18T19:31:38.713Z,11.20
2023-10-18T19:35:07.034Z,11.15
2023-10-18T19:38:35.264Z,11.09
2023-10-18T19:42:05.228Z,11.02
2023-10-18T19:45:32.461Z,10.95
2023-10-18T19:48:48.992Z,10.87
2023-10-18T19:52:17.095Z,10.80
2023-10-18T19:55:45.154Z,10.75
2023-10-18T19:59:12.886Z,10.65
2023-10-18T20:02:43.938Z,10.55
2023-10-18T20:06:12.046Z,10.46
2023-10-18T20:09:40.249Z,10.39
2023-10-18T20:13:08.542Z,10.33
2023-10-18T20:16:36.608Z,10.30
2023-10-18T20:20:04.652Z,10.28
2023-10-18T20:23:33.093Z,10.21
2023-10-18T20:27:01.005Z,10.10
2023-10-18T20:30:29.217Z,10.02
2023-10-18T20:33:57.208Z,9.97
2023-10-18T20:37:25.242Z,9.91
2023-10-18T20:40:53.410Z,9.81
2023-10-18T20:44:21.722Z,9.71
2023-10-18T20:47:49.860Z,9.65
2023-10-18T20:51:17.900Z,9.60
2023-10-18T20:54:45.962Z,9.55
2023-10-18T20:58:13.896Z,9.53
2023-10-18T21:01:42.221Z,9.42
2023-10-18T21:05:10.065Z,9.30
2023-10-18T21:08:38.193Z,9.17
2023-10-18T21:12:06.364Z,9.08
2023-10-18T21:15:34.550Z,9.00
2023-10-18T21:19:02.688Z,8.94
2023-10-18T21:22:30.909Z,8.89
2023-10-18T21:25:59.235Z,8.83
2023-10-18T21:29:27.356Z,8.82
2023-10-18T21:32:55.412Z,8.82
2023-10-18T21:36:23.564Z,8.83
2023-10-18T21:39:51.906Z,8.83
2023-10-18T21:43:20.076Z,8.83
2023-10-18T21:46:51.412Z,8.84
2023-10-18T21:50:21.471Z,8.85
2023-10-18T21:53:50.633Z,8.85
2023-10-18T21:57:21.298Z,8.83
2023-10-18T22:00:49.728Z,8.83
2023-10-18T22:04:19.223Z,8.82
2023-10-18T22:07:46.672Z,8.78
2023-10-18T22:11:14.745Z,8.69
2023-10-18T22:14:43.034Z,8.57
2023-10-18T22:18:11.546Z,8.52
2023-10-18T22:21:39.786Z,8.46
2023-10-18T22:25:08.611Z,8.36
2023-10-18T22:28:37.792Z,8.33
2023-10-18T22:32:16.621Z,8.33
2023-10-18T22:35:35.538Z,8.31
2023-10-18T22:39:05.153Z,8.34
2023-10-18T22:42:33.257Z,8.35
2023-10-18T22:46:01.283Z,8.34
2023-10-18T22:49:29.414Z,8.28
2023-10-18T22:52:57.662Z,8.18
2023-10-18T22:56:25.790Z,8.12
2023-10-18T22:59:53.985Z,8.10
2023-10-18T23:03:22.185Z,8.06
2023-10-18T23:06:50.211Z,7.99
2023-10-18T23:10:18.302Z,7.93
2023-10-18T23:13:46.151Z,7.89
2023-10-18T23:17:14.277Z,7.84
2023-10-18T23:20:42.408Z,7.76
2023-10-18T23:24:10.469Z,7.70
2023-10-18T23:27:38.697Z,7.65
2023-10-18T23:31:06.887Z,7.63
2023-10-18T23:34:35.138Z,7.63
2023-10-18T23:38:02.607Z,7.64
2023-10-18T23:41:30.837Z,7.67
2023-10-18T23:44:59.109Z,7.68
2023-10-18T23:48:27.326Z,7.69
2023-10-18T23:51:55.340Z,7.71
2023-10-18T23:55:23.404Z,7.71
2023-10-18T23:58:51.669Z,7.71
